sensor_id;sensor_type;location;lat;lon;timestamp;P1;durP1;ratioP1;P2;durP2;ratioP2
77091;SDS011;66032;48.252;11.638;2023-02-15T00:02:02;13.48;;;6.75;;
77091;SDS011;66032;48.252;11.638;2023-02-15T00:04:29;20.67;;;7.15;;
77091;SDS011;66032;48.252;11.638;2023-02-15T00:07:13;16.38;;;7.30;;
77091;SDS011;66032;48.252;11.638;2023-02-15T00:09:42;13.27;;;6.60;;
77091;SDS011;66032;48.252;11.638;2023-02-15T00:12:11;50.00;;;8.93;;
77091;SDS011;66032;48.252;11.638;2023-02-15T00:14:39;92.45;;;9.63;;
77091;SDS011;66032;48.252;11.638;2023-02-15T00:17:06;34.92;;;7.57;;
77091;SDS011;66032;48.252;11.638;2023-02-15T00:19:33;22.75;;;7.28;;
77091;SDS011;66032;48.252;11.638;2023-02-15T00:22:00;18.00;;;7.50;;
77091;SDS011;66032;48.252;11.638;2023-02-15T00:24:27;41.53;;;8.18;;
77091;SDS011;66032;48.252;11.638;2023-02-15T00:26:54;22.70;;;8.30;;
77091;SDS011;66032;48.252;11.638;2023-02-15T00:29:21;67.20;;;9.23;;
77091;SDS011;66032;48.252;11.638;2023-02-15T00:31:49;136.43;;;12.05;;
77091;SDS011;66032;48.252;11.638;2023-02-15T00:34:17;13.80;;;6.43;;
77091;SDS011;66032;48.252;11.638;2023-02-15T00:36:47;26.45;;;7.68;;
77091;SDS011;66032;48.252;11.638;2023-02-15T00:39:15;44.95;;;7.97;;
77091;SDS011;66032;48.252;11.638;2023-02-15T00:41:44;40.80;;;8.75;;
77091;SDS011;66032;48.252;11.638;2023-02-15T00:44:12;15.95;;;6.07;;
77091;SDS011;66032;48.252;11.638;2023-02-15T00:46:39;30.92;;;7.88;;
77091;SDS011;66032;48.252;11.638;2023-02-15T00:49:08;28.13;;;7.43;;
77091;SDS011;66032;48.252;11.638;2023-02-15T00:51:36;29.40;;;7.75;;
77091;SDS011;66032;48.252;11.638;2023-02-15T00:54:04;41.60;;;8.45;;
77091;SDS011;66032;48.252;11.638;2023-02-15T00:56:32;14.30;;;6.80;;
77091;SDS011;66032;48.252;11.638;2023-02-15T00:58:59;9.52;;;5.90;;
77091;SDS011;66032;48.252;11.638;2023-02-15T01:01:27;21.73;;;7.60;;
77091;SDS011;66032;48.252;11.638;2023-02-15T01:03:54;43.38;;;9.25;;
77091;SDS011;66032;48.252;11.638;2023-02-15T01:06:21;21.60;;;6.22;;
77091;SDS011;66032;48.252;11.638;2023-02-15T01:08:48;54.13;;;9.20;;
77091;SDS011;66032;48.252;11.638;2023-02-15T01:11:17;40.22;;;6.13;;
77091;SDS011;66032;48.252;11.638;2023-02-15T01:13:51;26.20;;;7.75;;
77091;SDS011;66032;48.252;11.638;2023-02-15T01:16:20;15.23;;;6.90;;
77091;SDS011;66032;48.252;11.638;2023-02-15T01:18:48;14.73;;;7.10;;
77091;SDS011;66032;48.252;11.638;2023-02-15T01:21:17;15.07;;;7.45;;
77091;SDS011;66032;48.252;11.638;2023-02-15T01:23:46;63.17;;;9.90;;
77091;SDS011;66032;48.252;11.638;2023-02-15T01:26:14;25.65;;;7.45;;
77091;SDS011;66032;48.252;11.638;2023-02-15T01:28:43;65.00;;;8.88;;
77091;SDS011;66032;48.252;11.638;2023-02-15T01:31:12;106.85;;;9.65;;
77091;SDS011;66032;48.252;11.638;2023-02-15T01:33:44;91.03;;;10.13;;
77091;SDS011;66032;48.252;11.638;2023-02-15T01:36:13;48.58;;;8.98;;
77091;SDS011;66032;48.252;11.638;2023-02-15T01:38:41;27.27;;;7.68;;
77091;SDS011;66032;48.252;11.638;2023-02-15T01:41:08;51.13;;;9.88;;
77091;SDS011;66032;48.252;11.638;2023-02-15T01:43:56;79.40;;;10.50;;
77091;SDS011;66032;48.252;11.638;2023-02-15T01:49:02;110.57;;;12.00;;
77091;SDS011;66032;48.252;11.638;2023-02-15T01:51:36;19.23;;;8.18;;
77091;SDS011;66032;48.252;11.638;2023-02-15T01:54:11;60.80;;;11.38;;
77091;SDS011;66032;48.252;11.638;2023-02-15T01:56:48;42.47;;;9.18;;
77091;SDS011;66032;48.252;11.638;2023-02-15T01:59:16;21.30;;;8.73;;
77091;SDS011;66032;48.252;11.638;2023-02-15T02:01:48;16.08;;;7.07;;
77091;SDS011;66032;48.252;11.638;2023-02-15T02:05:03;39.63;;;8.82;;
77091;SDS011;66032;48.252;11.638;2023-02-15T02:07:13;20.02;;;7.93;;
77091;SDS011;66032;48.252;11.638;2023-02-15T02:09:44;19.10;;;7.93;;
77091;SDS011;66032;48.252;11.638;2023-02-15T02:12:12;37.60;;;11.20;;
77091;SDS011;66032;48.252;11.638;2023-02-15T02:14:39;290.33;;;18.45;;
77091;SDS011;66032;48.252;11.638;2023-02-15T02:31:11;16.92;;;8.23;;
77091;SDS011;66032;48.252;11.638;2023-02-15T02:33:55;45.83;;;9.85;;
77091;SDS011;66032;48.252;11.638;2023-02-15T02:36:48;34.42;;;9.55;;
77091;SDS011;66032;48.252;11.638;2023-02-15T02:39:37;42.65;;;10.00;;
77091;SDS011;66032;48.252;11.638;2023-02-15T02:45:09;35.33;;;8.77;;
77091;SDS011;66032;48.252;11.638;2023-02-15T02:47:53;63.08;;;9.75;;
77091;SDS011;66032;48.252;11.638;2023-02-15T02:50:27;92.07;;;12.52;;
77091;SDS011;66032;48.252;11.638;2023-02-15T02:52:57;34.33;;;8.88;;
77091;SDS011;66032;48.252;11.638;2023-02-15T03:00:37;32.25;;;10.13;;
77091;SDS011;66032;48.252;11.638;2023-02-15T03:03:12;10.98;;;6.28;;
77091;SDS011;66032;48.252;11.638;2023-02-15T03:05:47;11.80;;;5.60;;
77091;SDS011;66032;48.252;11.638;2023-02-15T03:08:19;10.00;;;5.05;;
77091;SDS011;66032;48.252;11.638;2023-02-15T03:10:53;15.43;;;5.85;;
77091;SDS011;66032;48.252;11.638;2023-02-15T03:13:23;15.20;;;6.40;;
77091;SDS011;66032;48.252;11.638;2023-02-15T03:15:50;14.10;;;6.28;;
77091;SDS011;66032;48.252;11.638;2023-02-15T03:18:39;19.08;;;8.68;;
77091;SDS011;66032;48.252;11.638;2023-02-15T03:21:11;16.73;;;7.70;;
77091;SDS011;66032;48.252;11.638;2023-02-15T03:23:50;11.40;;;6.68;;
77091;SDS011;66032;48.252;11.638;2023-02-15T03:26:21;10.68;;;5.40;;
77091;SDS011;66032;48.252;11.638;2023-02-15T03:31:23;12.00;;;5.93;;
77091;SDS011;66032;48.252;11.638;2023-02-15T03:33:57;22.23;;;8.95;;
77091;SDS011;66032;48.252;11.638;2023-02-15T03:36:32;12.73;;;6.45;;
77091;SDS011;66032;48.252;11.638;2023-02-15T03:39:12;11.07;;;4.90;;
77091;SDS011;66032;48.252;11.638;2023-02-15T03:42:31;8.57;;;4.03;;
77091;SDS011;66032;48.252;11.638;2023-02-15T03:44:59;13.20;;;6.80;;
77091;SDS011;66032;48.252;11.638;2023-02-15T03:47:39;13.70;;;6.63;;
77091;SDS011;66032;48.252;11.638;2023-02-15T03:50:21;17.05;;;8.15;;
77091;SDS011;66032;48.252;11.638;2023-02-15T03:53:13;17.42;;;8.02;;
77091;SDS011;66032;48.252;11.638;2023-02-15T03:55:47;17.30;;;8.52;;
77091;SDS011;66032;48.252;11.638;2023-02-15T03:58:15;8.75;;;5.43;;
77091;SDS011;66032;48.252;11.638;2023-02-15T04:01:04;11.13;;;6.03;;
77091;SDS011;66032;48.252;11.638;2023-02-15T04:04:41;15.75;;;7.43;;
77091;SDS011;66032;48.252;11.638;2023-02-15T04:06:51;17.05;;;8.27;;
77091;SDS011;66032;48.252;11.638;2023-02-15T04:09:18;35.33;;;7.95;;
77091;SDS011;66032;48.252;11.638;2023-02-15T04:12:04;11.13;;;5.85;;
77091;SDS011;66032;48.252;11.638;2023-02-15T04:14:31;19.58;;;7.15;;
77091;SDS011;66032;48.252;11.638;2023-02-15T04:17:17;37.38;;;8.52;;
77091;SDS011;66032;48.252;11.638;2023-02-15T04:19:44;11.68;;;6.60;;
77091;SDS011;66032;48.252;11.638;2023-02-15T04:22:30;11.27;;;5.95;;
77091;SDS011;66032;48.252;11.638;2023-02-15T04:25:15;32.55;;;8.48;;
77091;SDS011;66032;48.252;11.638;2023-02-15T04:27:44;14.23;;;6.85;;
77091;SDS011;66032;48.252;11.638;2023-02-15T04:30:15;11.93;;;6.13;;
77091;SDS011;66032;48.252;11.638;2023-02-15T04:32:45;8.05;;;4.00;;
77091;SDS011;66032;48.252;11.638;2023-02-15T04:35:12;9.85;;;5.28;;
77091;SDS011;66032;48.252;11.638;2023-02-15T04:37:41;13.63;;;6.60;;
77091;SDS011;66032;48.252;11.638;2023-02-15T04:40:09;12.65;;;6.13;;
77091;SDS011;66032;48.252;11.638;2023-02-15T04:42:39;15.43;;;6.85;;
77091;SDS011;66032;48.252;11.638;2023-02-15T04:45:07;12.82;;;6.13;;
77091;SDS011;66032;48.252;11.638;2023-02-15T04:47:34;14.65;;;7.05;;
77091;SDS011;66032;48.252;11.638;2023-02-15T04:50:01;9.50;;;5.35;;
77091;SDS011;66032;48.252;11.638;2023-02-15T04:52:29;26.40;;;8.02;;
77091;SDS011;66032;48.252;11.638;2023-02-15T04:54:56;43.53;;;8.82;;
77091;SDS011;66032;48.252;11.638;2023-02-15T04:57:23;20.20;;;8.85;;
77091;SDS011;66032;48.252;11.638;2023-02-15T04:59:50;11.05;;;5.70;;
77091;SDS011;66032;48.252;11.638;2023-02-15T05:02:17;11.82;;;6.78;;
77091;SDS011;66032;48.252;11.638;2023-02-15T05:04:45;8.45;;;4.25;;
77091;SDS011;66032;48.252;11.638;2023-02-15T05:07:12;10.20;;;4.28;;
77091;SDS011;66032;48.252;11.638;2023-02-15T05:09:39;6.75;;;4.15;;
77091;SDS011;66032;48.252;11.638;2023-02-15T05:12:06;17.58;;;8.52;;
77091;SDS011;66032;48.252;11.638;2023-02-15T05:14:34;26.67;;;7.90;;
77091;SDS011;66032;48.252;11.638;2023-02-15T05:17:01;37.53;;;8.75;;
77091;SDS011;66032;48.252;11.638;2023-02-15T05:19:29;10.98;;;5.30;;
77091;SDS011;66032;48.252;11.638;2023-02-15T05:21:57;11.32;;;7.38;;
77091;SDS011;66032;48.252;11.638;2023-02-15T05:24:24;12.50;;;7.13;;
77091;SDS011;66032;48.252;11.638;2023-02-15T05:27:10;16.45;;;7.35;;
77091;SDS011;66032;48.252;11.638;2023-02-15T05:29:57;11.60;;;6.65;;
77091;SDS011;66032;48.252;11.638;2023-02-15T05:32:24;9.90;;;5.55;;
77091;SDS011;66032;48.252;11.638;2023-02-15T05:34:51;23.67;;;8.45;;
77091;SDS011;66032;48.252;11.638;2023-02-15T05:37:19;11.70;;;7.22;;
77091;SDS011;66032;48.252;11.638;2023-02-15T05:39:46;9.55;;;5.43;;
77091;SDS011;66032;48.252;11.638;2023-02-15T05:42:13;8.52;;;4.88;;
77091;SDS011;66032;48.252;11.638;2023-02-15T05:44:40;15.15;;;8.63;;
77091;SDS011;66032;48.252;11.638;2023-02-15T05:47:07;15.70;;;8.43;;
77091;SDS011;66032;48.252;11.638;2023-02-15T05:49:34;13.35;;;7.53;;
77091;SDS011;66032;48.252;11.638;2023-02-15T05:52:02;9.60;;;4.65;;
77091;SDS011;66032;48.252;11.638;2023-02-15T05:54:30;34.00;;;9.20;;
77091;SDS011;66032;48.252;11.638;2023-02-15T05:56:57;23.40;;;7.90;;
77091;SDS011;66032;48.252;11.638;2023-02-15T05:59:24;23.17;;;8.75;;
77091;SDS011;66032;48.252;11.638;2023-02-15T06:01:52;10.07;;;5.80;;
77091;SDS011;66032;48.252;11.638;2023-02-15T06:04:19;15.15;;;7.20;;
77091;SDS011;66032;48.252;11.638;2023-02-15T06:06:46;14.85;;;7.78;;
77091;SDS011;66032;48.252;11.638;2023-02-15T06:09:13;20.55;;;8.32;;
77091;SDS011;66032;48.252;11.638;2023-02-15T06:11:41;10.98;;;6.63;;
77091;SDS011;66032;48.252;11.638;2023-02-15T06:14:08;29.23;;;7.57;;
77091;SDS011;66032;48.252;11.638;2023-02-15T06:16:35;129.93;;;11.07;;
77091;SDS011;66032;48.252;11.638;2023-02-15T06:19:03;12.23;;;5.75;;
77091;SDS011;66032;48.252;11.638;2023-02-15T06:21:30;9.55;;;4.70;;
77091;SDS011;66032;48.252;11.638;2023-02-15T06:23:57;8.30;;;4.28;;
77091;SDS011;66032;48.252;11.638;2023-02-15T06:26:24;11.00;;;6.03;;
77091;SDS011;66032;48.252;11.638;2023-02-15T06:28:52;34.80;;;8.80;;
77091;SDS011;66032;48.252;11.638;2023-02-15T06:31:19;9.32;;;5.28;;
77091;SDS011;66032;48.252;11.638;2023-02-15T06:33:46;12.50;;;7.20;;
77091;SDS011;66032;48.252;11.638;2023-02-15T06:36:14;10.75;;;5.70;;
77091;SDS011;66032;48.252;11.638;2023-02-15T06:38:41;20.50;;;8.15;;
77091;SDS011;66032;48.252;11.638;2023-02-15T06:41:08;50.10;;;9.00;;
77091;SDS011;66032;48.252;11.638;2023-02-15T06:43:35;9.13;;;4.90;;
77091;SDS011;66032;48.252;11.638;2023-02-15T06:46:04;6.07;;;3.60;;
77091;SDS011;66032;48.252;11.638;2023-02-15T06:48:31;7.95;;;4.40;;
77091;SDS011;66032;48.252;11.638;2023-02-15T06:50:58;10.35;;;5.32;;
77091;SDS011;66032;48.252;11.638;2023-02-15T06:53:25;10.45;;;5.70;;
77091;SDS011;66032;48.252;11.638;2023-02-15T06:55:53;42.88;;;7.85;;
77091;SDS011;66032;48.252;11.638;2023-02-15T06:58:28;8.98;;;5.38;;
77091;SDS011;66032;48.252;11.638;2023-02-15T07:00:55;15.70;;;7.93;;
77091;SDS011;66032;48.252;11.638;2023-02-15T07:03:22;69.65;;;9.40;;
77091;SDS011;66032;48.252;11.638;2023-02-15T07:05:54;54.15;;;9.50;;
77091;SDS011;66032;48.252;11.638;2023-02-15T07:08:26;8.43;;;5.07;;
77091;SDS011;66032;48.252;11.638;2023-02-15T07:10:55;11.02;;;5.85;;
77091;SDS011;66032;48.252;11.638;2023-02-15T07:13:42;16.15;;;8.70;;
77091;SDS011;66032;48.252;11.638;2023-02-15T07:16:09;26.95;;;7.75;;
77091;SDS011;66032;48.252;11.638;2023-02-15T07:18:38;12.57;;;6.53;;
77091;SDS011;66032;48.252;11.638;2023-02-15T07:21:06;11.98;;;6.57;;
77091;SDS011;66032;48.252;11.638;2023-02-15T07:23:37;43.42;;;9.35;;
77091;SDS011;66032;48.252;11.638;2023-02-15T07:26:06;12.07;;;5.93;;
77091;SDS011;66032;48.252;11.638;2023-02-15T07:28:34;11.20;;;7.22;;
77091;SDS011;66032;48.252;11.638;2023-02-15T07:31:02;9.25;;;4.95;;
77091;SDS011;66032;48.252;11.638;2023-02-15T07:33:31;13.60;;;7.50;;
77091;SDS011;66032;48.252;11.638;2023-02-15T07:36:01;12.57;;;5.90;;
77091;SDS011;66032;48.252;11.638;2023-02-15T07:38:31;11.85;;;6.65;;
77091;SDS011;66032;48.252;11.638;2023-02-15T07:41:01;16.10;;;7.50;;
77091;SDS011;66032;48.252;11.638;2023-02-15T07:43:32;15.18;;;7.85;;
77091;SDS011;66032;48.252;11.638;2023-02-15T07:46:03;21.38;;;8.82;;
77091;SDS011;66032;48.252;11.638;2023-02-15T07:48:32;11.70;;;6.75;;
77091;SDS011;66032;48.252;11.638;2023-02-15T07:51:01;22.02;;;8.70;;
77091;SDS011;66032;48.252;11.638;2023-02-15T07:53:30;50.40;;;9.70;;
77091;SDS011;66032;48.252;11.638;2023-02-15T07:55:58;11.10;;;6.75;;
77091;SDS011;66032;48.252;11.638;2023-02-15T07:58:27;11.05;;;5.93;;
77091;SDS011;66032;48.252;11.638;2023-02-15T08:01:13;52.85;;;10.20;;
77091;SDS011;66032;48.252;11.638;2023-02-15T08:03:41;42.45;;;9.68;;
77091;SDS011;66032;48.252;11.638;2023-02-15T08:06:08;16.85;;;7.57;;
77091;SDS011;66032;48.252;11.638;2023-02-15T08:08:38;21.73;;;9.82;;
77091;SDS011;66032;48.252;11.638;2023-02-15T08:11:14;41.92;;;10.43;;
77091;SDS011;66032;48.252;11.638;2023-02-15T08:14:34;16.85;;;8.90;;
77091;SDS011;66032;48.252;11.638;2023-02-15T08:16:48;21.58;;;8.25;;
77091;SDS011;66032;48.252;11.638;2023-02-15T08:19:18;38.15;;;9.50;;
77091;SDS011;66032;48.252;11.638;2023-02-15T08:21:53;29.20;;;9.35;;
77091;SDS011;66032;48.252;11.638;2023-02-15T08:24:25;30.05;;;8.70;;
77091;SDS011;66032;48.252;11.638;2023-02-15T08:26:54;16.80;;;9.02;;
77091;SDS011;66032;48.252;11.638;2023-02-15T08:29:23;15.18;;;8.80;;
77091;SDS011;66032;48.252;11.638;2023-02-15T08:31:52;15.90;;;8.57;;
77091;SDS011;66032;48.252;11.638;2023-02-15T08:34:22;17.00;;;8.60;;
77091;SDS011;66032;48.252;11.638;2023-02-15T08:36:49;14.80;;;8.57;;
77091;SDS011;66032;48.252;11.638;2023-02-15T08:39:16;13.50;;;7.97;;
77091;SDS011;66032;48.252;11.638;2023-02-15T08:41:44;18.80;;;9.77;;
77091;SDS011;66032;48.252;11.638;2023-02-15T08:44:14;13.10;;;7.15;;
77091;SDS011;66032;48.252;11.638;2023-02-15T08:46:43;31.33;;;8.80;;
77091;SDS011;66032;48.252;11.638;2023-02-15T08:49:13;20.35;;;8.88;;
77091;SDS011;66032;48.252;11.638;2023-02-15T08:51:43;13.93;;;7.47;;
77091;SDS011;66032;48.252;11.638;2023-02-15T08:54:15;14.88;;;7.88;;
77091;SDS011;66032;48.252;11.638;2023-02-15T08:56:45;17.48;;;9.10;;
77091;SDS011;66032;48.252;11.638;2023-02-15T08:59:20;24.50;;;8.95;;
77091;SDS011;66032;48.252;11.638;2023-02-15T09:01:49;13.50;;;8.07;;
77091;SDS011;66032;48.252;11.638;2023-02-15T09:04:18;13.90;;;8.38;;
77091;SDS011;66032;48.252;11.638;2023-02-15T09:06:47;14.23;;;8.05;;
77091;SDS011;66032;48.252;11.638;2023-02-15T09:09:18;16.17;;;9.05;;
77091;SDS011;66032;48.252;11.638;2023-02-15T09:11:46;16.95;;;9.43;;
77091;SDS011;66032;48.252;11.638;2023-02-15T09:14:21;11.00;;;6.30;;
77091;SDS011;66032;48.252;11.638;2023-02-15T09:16:51;12.93;;;7.85;;
77091;SDS011;66032;48.252;11.638;2023-02-15T09:19:20;13.50;;;8.45;;
77091;SDS011;66032;48.252;11.638;2023-02-15T09:21:49;18.25;;;9.93;;
77091;SDS011;66032;48.252;11.638;2023-02-15T09:24:17;11.23;;;6.43;;
77091;SDS011;66032;48.252;11.638;2023-02-15T09:26:45;14.05;;;8.45;;
77091;SDS011;66032;48.252;11.638;2023-02-15T09:29:14;10.02;;;5.90;;
77091;SDS011;66032;48.252;11.638;2023-02-15T09:31:43;12.02;;;8.10;;
77091;SDS011;66032;48.252;11.638;2023-02-15T09:34:13;12.38;;;7.55;;
77091;SDS011;66032;48.252;11.638;2023-02-15T09:36:43;15.90;;;9.15;;
77091;SDS011;66032;48.252;11.638;2023-02-15T09:39:12;11.82;;;7.07;;
77091;SDS011;66032;48.252;11.638;2023-02-15T09:41:54;25.27;;;9.98;;
77091;SDS011;66032;48.252;11.638;2023-02-15T09:50:43;15.73;;;9.07;;
77091;SDS011;66032;48.252;11.638;2023-02-15T10:22:09;15.32;;;9.63;;
77091;SDS011;66032;48.252;11.638;2023-02-15T10:25:05;16.13;;;10.77;;
77091;SDS011;66032;48.252;11.638;2023-02-15T10:27:47;16.88;;;10.23;;
77091;SDS011;66032;48.252;11.638;2023-02-15T10:33:04;13.27;;;7.55;;
77091;SDS011;66032;48.252;11.638;2023-02-15T10:38:51;14.90;;;8.52;;
77091;SDS011;66032;48.252;11.638;2023-02-15T10:47:32;13.30;;;8.18;;
77091;SDS011;66032;48.252;11.638;2023-02-15T10:56:23;14.05;;;9.13;;
77091;SDS011;66032;48.252;11.638;2023-02-15T11:02:04;12.95;;;8.32;;
77091;SDS011;66032;48.252;11.638;2023-02-15T11:04:42;14.93;;;8.25;;
77091;SDS011;66032;48.252;11.638;2023-02-15T11:12:31;16.08;;;9.27;;
77091;SDS011;66032;48.252;11.638;2023-02-15T11:15:17;15.18;;;9.30;;
77091;SDS011;66032;48.252;11.638;2023-02-15T11:19:08;13.73;;;9.00;;
77091;SDS011;66032;48.252;11.638;2023-02-15T11:21:29;11.85;;;8.43;;
77091;SDS011;66032;48.252;11.638;2023-02-15T11:23:59;16.60;;;8.88;;
77091;SDS011;66032;48.252;11.638;2023-02-15T11:26:31;11.77;;;8.55;;
77091;SDS011;66032;48.252;11.638;2023-02-15T11:29:12;14.70;;;7.88;;
77091;SDS011;66032;48.252;11.638;2023-02-15T11:31:54;12.43;;;8.40;;
77091;SDS011;66032;48.252;11.638;2023-02-15T11:34:29;12.88;;;8.90;;
77091;SDS011;66032;48.252;11.638;2023-02-15T11:37:05;13.02;;;8.00;;
77091;SDS011;66032;48.252;11.638;2023-02-15T11:39:37;13.20;;;9.20;;
77091;SDS011;66032;48.252;11.638;2023-02-15T11:42:06;12.20;;;8.27;;
77091;SDS011;66032;48.252;11.638;2023-02-15T11:47:22;11.70;;;8.65;;
77091;SDS011;66032;48.252;11.638;2023-02-15T11:49:49;12.95;;;7.95;;
77091;SDS011;66032;48.252;11.638;2023-02-15T11:52:16;16.83;;;11.20;;
77091;SDS011;66032;48.252;11.638;2023-02-15T11:54:46;13.40;;;8.50;;
77091;SDS011;66032;48.252;11.638;2023-02-15T11:57:38;19.70;;;11.38;;
77091;SDS011;66032;48.252;11.638;2023-02-15T12:02:43;13.68;;;9.23;;
77091;SDS011;66032;48.252;11.638;2023-02-15T12:05:16;13.90;;;9.77;;
77091;SDS011;66032;48.252;11.638;2023-02-15T12:07:52;12.75;;;8.48;;
77091;SDS011;66032;48.252;11.638;2023-02-15T12:10:24;12.52;;;8.75;;
77091;SDS011;66032;48.252;11.638;2023-02-15T12:13:14;14.05;;;9.52;;
77091;SDS011;66032;48.252;11.638;2023-02-15T12:15:52;13.70;;;9.43;;
77091;SDS011;66032;48.252;11.638;2023-02-15T12:18:38;13.70;;;8.93;;
77091;SDS011;66032;48.252;11.638;2023-02-15T12:21:12;12.60;;;8.40;;
77091;SDS011;66032;48.252;11.638;2023-02-15T12:26:27;14.80;;;9.48;;
77091;SDS011;66032;48.252;11.638;2023-02-15T12:29:00;13.50;;;9.20;;
77091;SDS011;66032;48.252;11.638;2023-02-15T12:31:36;14.35;;;10.32;;
77091;SDS011;66032;48.252;11.638;2023-02-15T12:36:43;15.23;;;9.82;;
77091;SDS011;66032;48.252;11.638;2023-02-15T12:41:59;13.57;;;9.57;;
77091;SDS011;66032;48.252;11.638;2023-02-15T12:44:35;15.70;;;9.38;;
77091;SDS011;66032;48.252;11.638;2023-02-15T12:49:43;14.45;;;10.50;;
77091;SDS011;66032;48.252;11.638;2023-02-15T12:54:44;15.18;;;10.60;;
77091;SDS011;66032;48.252;11.638;2023-02-15T12:57:20;15.32;;;9.98;;
77091;SDS011;66032;48.252;11.638;2023-02-15T12:59:57;16.30;;;10.57;;
77091;SDS011;66032;48.252;11.638;2023-02-15T13:07:46;14.77;;;10.40;;
77091;SDS011;66032;48.252;11.638;2023-02-15T13:12:56;16.20;;;9.20;;
77091;SDS011;66032;48.252;11.638;2023-02-15T13:15:25;13.95;;;9.18;;
77091;SDS011;66032;48.252;11.638;2023-02-15T13:17:57;14.32;;;8.80;;
77091;SDS011;66032;48.252;11.638;2023-02-15T13:20:27;16.05;;;9.75;;
77091;SDS011;66032;48.252;11.638;2023-02-15T13:23:00;13.73;;;8.13;;
77091;SDS011;66032;48.252;11.638;2023-02-15T13:25:33;16.48;;;10.00;;
77091;SDS011;66032;48.252;11.638;2023-02-15T13:28:12;13.32;;;8.60;;
77091;SDS011;66032;48.252;11.638;2023-02-15T13:30:43;14.00;;;9.13;;
77091;SDS011;66032;48.252;11.638;2023-02-15T13:36:09;15.55;;;10.68;;
77091;SDS011;66032;48.252;11.638;2023-02-15T13:41:17;14.38;;;9.20;;
77091;SDS011;66032;48.252;11.638;2023-02-15T13:54:53;16.10;;;10.52;;
77091;SDS011;66032;48.252;11.638;2023-02-15T13:57:32;14.68;;;9.82;;
77091;SDS011;66032;48.252;11.638;2023-02-15T14:02:55;20.90;;;12.07;;
77091;SDS011;66032;48.252;11.638;2023-02-15T14:08:45;19.67;;;11.32;;
77091;SDS011;66032;48.252;11.638;2023-02-15T14:11:37;17.60;;;11.05;;
77091;SDS011;66032;48.252;11.638;2023-02-15T14:17:02;19.65;;;11.77;;
77091;SDS011;66032;48.252;11.638;2023-02-15T14:19:50;21.23;;;12.10;;
77091;SDS011;66032;48.252;11.638;2023-02-15T14:22:31;18.73;;;11.77;;
77091;SDS011;66032;48.252;11.638;2023-02-15T14:31:06;19.40;;;11.82;;
77091;SDS011;66032;48.252;11.638;2023-02-15T14:33:40;19.27;;;11.33;;
77091;SDS011;66032;48.252;11.638;2023-02-15T14:36:15;18.85;;;11.55;;
77091;SDS011;66032;48.252;11.638;2023-02-15T14:38:59;19.55;;;12.18;;
77091;SDS011;66032;48.252;11.638;2023-02-15T14:42:29;18.40;;;11.13;;
77091;SDS011;66032;48.252;11.638;2023-02-15T14:45:22;20.55;;;11.77;;
77091;SDS011;66032;48.252;11.638;2023-02-15T14:48:07;20.98;;;11.77;;
77091;SDS011;66032;48.252;11.638;2023-02-15T14:50:42;20.55;;;11.63;;
77091;SDS011;66032;48.252;11.638;2023-02-15T15:01:28;18.58;;;10.90;;
77091;SDS011;66032;48.252;11.638;2023-02-15T15:04:00;29.45;;;14.10;;
77091;SDS011;66032;48.252;11.638;2023-02-15T15:06:32;20.10;;;12.43;;
77091;SDS011;66032;48.252;11.638;2023-02-15T15:09:46;20.42;;;11.85;;
77091;SDS011;66032;48.252;11.638;2023-02-15T15:11:55;21.75;;;12.75;;
77091;SDS011;66032;48.252;11.638;2023-02-15T15:14:42;20.65;;;12.40;;
77091;SDS011;66032;48.252;11.638;2023-02-15T15:17:11;22.75;;;12.65;;
77091;SDS011;66032;48.252;11.638;2023-02-15T15:22:19;31.27;;;14.60;;
77091;SDS011;66032;48.252;11.638;2023-02-15T15:24:47;27.92;;;15.20;;
77091;SDS011;66032;48.252;11.638;2023-02-15T15:50:00;30.20;;;17.50;;
77091;SDS011;66032;48.252;11.638;2023-02-15T15:52:31;32.83;;;17.70;;
77091;SDS011;66032;48.252;11.638;2023-02-15T15:55:13;33.38;;;19.00;;
77091;SDS011;66032;48.252;11.638;2023-02-15T15:57:44;37.00;;;19.75;;
77091;SDS011;66032;48.252;11.638;2023-02-15T16:00:38;34.70;;;16.88;;
77091;SDS011;66032;48.252;11.638;2023-02-15T16:03:15;36.15;;;18.30;;
77091;SDS011;66032;48.252;11.638;2023-02-15T16:05:43;36.67;;;18.38;;
77091;SDS011;66032;48.252;11.638;2023-02-15T16:08:10;37.95;;;20.55;;
77091;SDS011;66032;48.252;11.638;2023-02-15T16:10:37;40.05;;;20.17;;
77091;SDS011;66032;48.252;11.638;2023-02-15T16:13:05;39.08;;;21.13;;
77091;SDS011;66032;48.252;11.638;2023-02-15T16:18:15;39.00;;;19.98;;
77091;SDS011;66032;48.252;11.638;2023-02-15T16:21:00;35.25;;;19.25;;
77091;SDS011;66032;48.252;11.638;2023-02-15T16:28:47;37.25;;;19.27;;
77091;SDS011;66032;48.252;11.638;2023-02-15T16:31:16;33.28;;;16.70;;
77091;SDS011;66032;48.252;11.638;2023-02-15T16:33:44;46.08;;;19.02;;
77091;SDS011;66032;48.252;11.638;2023-02-15T16:36:13;81.53;;;20.20;;
77091;SDS011;66032;48.252;11.638;2023-02-15T16:41:22;38.70;;;16.08;;
77091;SDS011;66032;48.252;11.638;2023-02-15T16:43:54;39.75;;;14.60;;
77091;SDS011;66032;48.252;11.638;2023-02-15T16:49:01;58.85;;;16.17;;
77091;SDS011;66032;48.252;11.638;2023-02-15T16:51:33;33.88;;;14.65;;
77091;SDS011;66032;48.252;11.638;2023-02-15T16:54:05;55.35;;;13.98;;
77091;SDS011;66032;48.252;11.638;2023-02-15T16:56:41;43.10;;;12.80;;
77091;SDS011;66032;48.252;11.638;2023-02-15T17:01:58;40.75;;;13.98;;
77091;SDS011;66032;48.252;11.638;2023-02-15T17:04:27;29.67;;;13.07;;
77091;SDS011;66032;48.252;11.638;2023-02-15T17:07:04;39.17;;;13.65;;
77091;SDS011;66032;48.252;11.638;2023-02-15T17:09:33;21.40;;;11.93;;
77091;SDS011;66032;48.252;11.638;2023-02-15T17:12:00;38.22;;;14.48;;
77091;SDS011;66032;48.252;11.638;2023-02-15T17:14:29;114.18;;;17.38;;
77091;SDS011;66032;48.252;11.638;2023-02-15T17:17:01;116.07;;;16.98;;
77091;SDS011;66032;48.252;11.638;2023-02-15T17:19:49;28.92;;;12.50;;
77091;SDS011;66032;48.252;11.638;2023-02-15T17:22:21;40.38;;;14.63;;
77091;SDS011;66032;48.252;11.638;2023-02-15T17:24:57;53.50;;;15.70;;
77091;SDS011;66032;48.252;11.638;2023-02-15T17:27:29;74.60;;;16.55;;
77091;SDS011;66032;48.252;11.638;2023-02-15T17:30:00;27.48;;;14.02;;
77091;SDS011;66032;48.252;11.638;2023-02-15T17:32:30;67.85;;;16.02;;
77091;SDS011;66032;48.252;11.638;2023-02-15T17:35:07;32.30;;;15.02;;
77091;SDS011;66032;48.252;11.638;2023-02-15T17:37:50;66.95;;;16.20;;
77091;SDS011;66032;48.252;11.638;2023-02-15T17:40:27;46.03;;;14.30;;
77091;SDS011;66032;48.252;11.638;2023-02-15T17:42:59;106.53;;;18.33;;
77091;SDS011;66032;48.252;11.638;2023-02-15T17:45:31;37.60;;;14.70;;
77091;SDS011;66032;48.252;11.638;2023-02-15T17:48:04;67.43;;;15.43;;
77091;SDS011;66032;48.252;11.638;2023-02-15T17:50:33;66.40;;;16.23;;
77091;SDS011;66032;48.252;11.638;2023-02-15T17:53:00;31.83;;;15.25;;
77091;SDS011;66032;48.252;11.638;2023-02-15T17:55:28;28.17;;;13.60;;
77091;SDS011;66032;48.252;11.638;2023-02-15T17:58:02;78.95;;;18.67;;
77091;SDS011;66032;48.252;11.638;2023-02-15T18:00:35;46.58;;;15.13;;
77091;SDS011;66032;48.252;11.638;2023-02-15T18:03:24;24.23;;;13.15;;
77091;SDS011;66032;48.252;11.638;2023-02-15T18:06:14;116.55;;;16.55;;
77091;SDS011;66032;48.252;11.638;2023-02-15T18:08:59;37.78;;;13.70;;